Riviere-Saint-Jean, Canada
Current Conditions -  °F | °C
As of 11:00 AM on Saturday 25 Oct 2014 (Local Time) from CYGV Reporting Station
Overcast Overcast  
Wind Chill:   Ceiling: 3600
Heat Index:   Visibility: 9mi
Dew Point:   Wind: 14mph
Humidity: 70%   Direction: 50°NE
Pressure: 29.69"   Gusts: 21mph
Location:  50.28°N, 64.33°W
Report Text: CYGV 251500Z AUTO 05012G18KT 9SM OVC036 05/M00 A2969 RMK SLP056
Loading
Personal Weather Stations






























Interactive Weather Map
Tropical Storm Tracking
New forecast layout! Learn more

10-Day Weather Forecast

Advertisements
Track Severe Weather on mobile